Time;durP1;ratioP1;P1;durP2;ratioP2;P2;SDS_P1;SDS_P2;PMS_P1;PMS_P2;Temp;Humidity;BMP_temperature;BMP_pressure;BME280_temperature;BME280_humidity;BME280_pressure;Samples;Min_cycle;Max_cycle;Signal;HPM_P1;HPM_P2
2023/03/25 00:02:26;;;;;;;5.10;1.63;;;10.90;99.90;;;;;;4938302;29;20935;-78
2023/03/25 00:04:53;;;;;;;3.23;1.90;;;10.90;99.90;;;;;;4938465;29;20510;-78
2023/03/25 00:07:20;;;;;;;7.20;2.00;;;10.90;99.90;;;;;;4937366;29;20432;-78
2023/03/25 00:09:46;;;;;;;3.63;1.10;;;10.80;99.90;;;;;;4938166;29;20935;-80
2023/03/25 00:12:12;;;;;;;3.17;2.27;;;10.90;97.70;;;;;;4936864;29;20812;-80
2023/03/25 00:14:38;;;;;;;8.47;1.93;;;10.80;98.90;;;;;;4936608;29;20981;-79
2023/03/25 00:17:05;;;;;;;3.17;1.73;;;10.70;99.90;;;;;;4938179;29;20435;-78
2023/03/25 00:19:32;;;;;;;6.43;1.30;;;10.60;99.90;;;;;;4938184;29;20178;-77
2023/03/25 00:21:58;;;;;;;2.37;1.40;;;10.60;99.90;;;;;;4937984;29;20423;-79
2023/03/25 00:24:23;;;;;;;3.60;2.30;;;10.60;99.90;;;;;;4937121;29;20463;-79
2023/03/25 00:26:49;;;;;;;6.00;1.83;;;10.60;99.90;;;;;;4934365;29;20638;-77
2023/03/25 00:29:15;;;;;;;2.70;1.33;;;10.60;99.90;;;;;;4936842;29;20185;-78
2023/03/25 00:31:41;;;;;;;5.20;2.17;;;10.60;99.90;;;;;;4937988;29;20677;-77
2023/03/25 00:34:07;;;;;;;5.30;2.17;;;10.60;90.40;;;;;;4937833;29;20909;-77
2023/03/25 00:36:36;;;;;;;4.13;1.80;;;10.50;99.90;;;;;;4936894;29;20758;-77
2023/03/25 00:39:03;;;;;;;4.97;2.37;;;10.60;98.70;;;;;;4937582;29;20478;-78
2023/03/25 00:41:29;;;;;;;8.43;2.70;;;10.60;91.40;;;;;;4936277;29;20429;-77
2023/03/25 00:43:57;;;;;;;5.30;1.70;;;10.60;94.00;;;;;;4952530;29;20565;-78
2023/03/25 00:46:25;;;;;;;2.37;1.40;;;10.50;94.20;;;;;;4937012;29;20525;-78
2023/03/25 00:48:51;;;;;;;6.27;1.63;;;10.50;99.90;;;;;;4937407;29;20492;-78
2023/03/25 00:51:20;;;;;;;3.90;1.70;;;10.50;99.70;;;;;;4937487;29;20419;-78
2023/03/25 00:53:50;;;;;;;2.40;1.93;;;10.50;99.90;;;;;;4936298;29;20183;-78
2023/03/25 00:56:16;;;;;;;5.33;1.37;;;10.50;99.90;;;;;;4935935;29;20800;-78
2023/03/25 00:58:42;;;;;;;8.60;1.50;;;10.40;99.90;;;;;;4937474;29;20427;-79
2023/03/25 01:01:14;;;;;;;4.90;1.90;;;10.40;99.90;;;;;;4937637;29;20170;-79
2023/03/25 01:03:42;;;;;;;5.57;1.53;;;10.50;99.90;;;;;;4936976;29;20602;-79
2023/03/25 01:06:14;;;;;;;4.20;1.53;;;10.50;99.90;;;;;;4935376;29;20421;-79
2023/03/25 01:08:41;;;;;;;5.73;2.13;;;10.50;99.90;;;;;;4935650;29;20415;-79
2023/03/25 01:11:18;;;;;;;4.47;2.50;;;10.50;99.90;;;;;;4935192;29;20429;-79
2023/03/25 01:13:44;;;;;;;3.70;2.10;;;10.60;99.90;;;;;;4936205;29;20529;-79
2023/03/25 01:16:10;;;;;;;5.50;1.83;;;10.60;99.90;;;;;;4937457;29;20429;-79
2023/03/25 01:18:37;;;;;;;3.80;2.00;;;10.70;99.90;;;;;;4935866;29;20454;-79
2023/03/25 01:21:04;;;;;;;4.63;2.07;;;10.70;99.90;;;;;;4951643;29;20176;-79
2023/03/25 01:23:30;;;;;;;4.37;1.80;;;10.70;99.90;;;;;;4935137;29;20446;-79
2023/03/25 01:25:56;;;;;;;5.90;2.20;;;10.70;99.90;;;;;;4935849;29;20490;-79
2023/03/25 01:28:22;;;;;;;4.20;2.37;;;10.80;99.90;;;;;;4935956;29;20651;-79
2023/03/25 01:30:48;;;;;;;4.90;1.63;;;10.70;99.90;;;;;;4935644;29;20187;-79
2023/03/25 01:33:13;;;;;;;6.13;1.70;;;10.70;99.90;;;;;;4935331;29;20481;-79
2023/03/25 01:35:40;;;;;;;2.10;0.80;;;10.70;99.90;;;;;;4935520;29;20181;-79
2023/03/25 01:38:05;;;;;;;3.87;1.10;;;10.70;99.90;;;;;;4935089;29;20206;-79
2023/03/25 01:40:31;;;;;;;4.87;2.20;;;10.70;99.90;;;;;;4936825;29;20470;-79
2023/03/25 01:42:56;;;;;;;6.53;2.00;;;10.60;99.90;;;;;;4935088;29;20217;-79
2023/03/25 01:45:24;;;;;;;3.20;1.30;;;10.60;99.90;;;;;;4936778;29;20337;-78
2023/03/25 01:48:03;;;;;;;4.00;1.57;;;10.60;99.90;;;;;;4936778;29;20191;-79
2023/03/25 01:50:31;;;;;;;2.77;1.83;;;10.60;99.90;;;;;;4936761;29;20481;-79
2023/03/25 01:53:04;;;;;;;2.17;0.87;;;10.50;99.90;;;;;;4951353;29;20958;-79
2023/03/25 01:55:33;;;;;;;6.07;1.47;;;10.50;99.90;;;;;;4936528;29;20899;-79
2023/03/25 01:58:03;;;;;;;6.33;1.13;;;10.60;99.90;;;;;;4934985;29;20448;-79
2023/03/25 02:00:29;;;;;;;3.50;1.13;;;10.60;99.90;;;;;;4935389;29;20421;-79
2023/03/25 02:02:58;;;;;;;3.13;1.03;;;10.70;99.50;;;;;;4935223;29;20438;-79
2023/03/25 02:05:38;;;;;;;5.60;1.43;;;10.70;99.90;;;;;;4935053;29;21013;-79
2023/03/25 02:08:05;;;;;;;4.20;1.83;;;10.70;99.90;;;;;;4929212;29;20434;-79
2023/03/25 02:10:32;;;;;;;4.10;1.50;;;10.80;99.90;;;;;;4934974;29;20454;-79
2023/03/25 02:12:58;;;;;;;4.00;1.57;;;10.70;84.10;;;;;;4934586;29;20571;-79
2023/03/25 02:15:24;;;;;;;5.13;1.50;;;10.80;49.50;;;;;;4936020;29;20951;-80
2023/03/25 02:18:06;;;;;;;4.07;1.97;;;10.80;42.20;;;;;;4934843;29;20434;-78
2023/03/25 02:21:02;;;;;;;9.20;1.80;;;10.70;30.10;;;;;;4934925;29;20210;-79
2023/03/25 02:23:59;;;;;;;4.10;1.60;;;10.60;45.70;;;;;;4950854;29;20438;-79
2023/03/25 02:26:55;;;;;;;3.77;1.83;;;10.70;52.00;;;;;;4950339;29;20939;-79
2023/03/25 02:29:52;;;;;;;3.50;1.87;;;10.70;48.00;;;;;;4947227;29;20438;-79
2023/03/25 02:32:30;;;;;;;3.73;1.57;;;10.70;46.00;;;;;;4934769;29;20485;-79
2023/03/25 02:35:35;;;;;;;3.97;1.97;;;10.80;39.70;;;;;;4949974;29;20428;-78
2023/03/25 02:38:23;;;;;;;6.63;2.00;;;10.70;19.10;;;;;;4934419;29;20841;-79
2023/03/25 02:41:01;;;;;;;4.97;2.40;;;10.60;33.00;;;;;;4936004;29;20497;-79
2023/03/25 02:43:46;;;;;;;4.17;1.90;;;10.60;46.00;;;;;;4935864;29;20427;-79
2023/03/25 02:46:16;;;;;;;3.90;2.00;;;10.60;49.10;;;;;;4934634;29;20442;-79
2023/03/25 02:49:01;;;;;;;3.90;1.93;;;10.60;39.80;;;;;;4933565;29;20431;-79
2023/03/25 02:51:32;;;;;;;5.33;2.67;;;10.50;37.80;;;;;;4934291;29;20528;-79
2023/03/25 02:54:10;;;;;;;3.83;2.00;;;10.50;54.20;;;;;;4934624;29;20508;-79
2023/03/25 02:56:38;;;;;;;2.93;1.30;;;10.50;53.10;;;;;;4935519;29;20425;-79
2023/03/25 02:59:06;;;;;;;4.53;2.07;;;10.50;64.50;;;;;;4934440;29;20432;-79
2023/03/25 03:01:35;;;;;;;4.40;1.57;;;10.50;57.80;;;;;;4934386;29;20429;-78
2023/03/25 03:04:01;;;;;;;7.13;1.80;;;10.50;54.90;;;;;;4935703;29;20818;-78
2023/03/25 03:06:27;;;;;;;9.83;2.00;;;10.50;51.90;;;;;;4934480;29;20418;-79
2023/03/25 03:09:37;;;;;;;3.43;1.70;;;10.50;48.30;;;;;;4934411;29;20186;-78
2023/03/25 03:12:05;;;;;;;4.00;1.37;;;10.50;58.50;;;;;;4932128;29;20512;-78
2023/03/25 03:14:46;;;;;;;4.37;1.70;;;10.50;54.60;;;;;;4935290;29;20469;-78
2023/03/25 03:17:37;;;;;;;4.63;1.00;;;10.50;76.30;;;;;;4935548;29;20419;-78
2023/03/25 03:20:17;;;;;;;3.70;1.27;;;10.60;49.60;;;;;;4934369;29;20520;-78
2023/03/25 03:22:53;;;;;;;3.37;1.30;;;10.50;52.90;;;;;;4934308;29;20440;-78
2023/03/25 03:25:30;;;;;;;3.17;1.40;;;10.60;61.40;;;;;;4934217;29;20422;-78
2023/03/25 03:28:21;;;;;;;3.53;1.13;;;10.50;36.70;;;;;;4933527;29;20517;-78
2023/03/25 03:30:53;;;;;;;5.70;1.33;;;10.40;56.80;;;;;;4935537;29;20485;-78
2023/03/25 03:33:29;;;;;;;4.77;1.80;;;10.50;36.80;;;;;;4934002;29;20883;-78
2023/03/25 03:36:00;;;;;;;4.90;1.87;;;10.40;25.20;;;;;;4934264;29;20463;-78
2023/03/25 03:38:29;;;;;;;3.40;1.03;;;10.40;49.40;;;;;;4935295;29;20550;-78
2023/03/25 03:41:06;;;;;;;7.17;2.20;;;10.40;56.80;;;;;;4933792;29;20525;-78
2023/03/25 03:43:49;;;;;;;5.10;2.40;;;10.40;63.00;;;;;;4935385;29;20810;-78
2023/03/25 03:46:21;;;;;;;2.27;1.43;;;10.40;72.10;;;;;;4935141;29;20902;-78
2023/03/25 03:48:58;;;;;;;5.33;1.60;;;10.40;70.10;;;;;;4935295;29;20451;-79
2023/03/25 03:51:33;;;;;;;5.43;1.27;;;10.50;53.90;;;;;;4935093;29;20419;-78
2023/03/25 03:54:21;;;;;;;2.93;1.17;;;10.50;32.70;;;;;;4935288;29;20783;-78
2023/03/25 03:56:52;;;;;;;4.37;1.67;;;10.40;39.20;;;;;;4935014;29;20780;-79
2023/03/25 03:59:44;;;;;;;3.87;1.17;;;10.50;77.10;;;;;;4935124;29;20424;-81
2023/03/25 04:02:33;;;;;;;5.30;1.47;;;10.50;19.20;;;;;;4936245;29;20454;-79
2023/03/25 04:04:59;;;;;;;3.00;1.50;;;10.50;40.90;;;;;;4938897;29;20793;-79
2023/03/25 04:07:43;;;;;;;4.07;2.40;;;10.50;15.60;;;;;;4938699;29;20445;-79
2023/03/25 04:10:40;;;;;;;3.50;1.30;;;10.50;19.60;;;;;;4938718;29;20419;-79
2023/03/25 04:13:15;;;;;;;6.80;1.80;;;10.50;24.00;;;;;;4937186;29;20575;-79
2023/03/25 04:15:41;;;;;;;2.83;1.60;;;10.50;22.70;;;;;;4921485;29;20421;-79
2023/03/25 04:18:07;;;;;;;3.73;2.00;;;10.50;3.20;;;;;;4937274;29;20433;-79
2023/03/25 04:20:35;;;;;;;3.83;1.70;;;10.40;12.40;;;;;;4938582;29;20769;-79
2023/03/25 04:23:03;;;;;;;2.30;1.30;;;10.50;5.40;;;;;;4938494;29;20183;-79
2023/03/25 04:25:31;;;;;;;6.63;1.97;;;10.50;5.20;;;;;;4936884;29;20426;-79
2023/03/25 04:27:57;;;;;;;3.50;1.37;;;10.50;4.90;;;;;;4938003;29;20429;-78
2023/03/25 04:30:24;;;;;;;3.30;1.10;;;10.50;3.20;;;;;;4938123;29;20974;-79
2023/03/25 04:32:51;;;;;;;5.47;2.17;;;10.50;2.60;;;;;;4938247;29;20474;-82
2023/03/25 04:35:18;;;;;;;2.63;0.80;;;10.20;11.10;;;;;;4938068;29;20416;-78
2023/03/25 04:37:52;;;;;;;3.40;0.87;;;10.10;54.20;;;;;;4938171;29;20925;-78
2023/03/25 04:40:17;;;;;;;2.40;1.10;;;10.10;58.00;;;;;;4937967;29;20873;-78
2023/03/25 04:42:45;;;;;;;2.40;0.93;;;10.00;73.20;;;;;;4937535;29;20422;-78
2023/03/25 04:45:15;;;;;;;2.80;1.23;;;9.80;99.90;;;;;;4937970;29;20181;-78
2023/03/25 04:47:43;;;;;;;4.93;0.70;;;9.80;99.90;;;;;;4937949;29;20468;-78
2023/03/25 04:50:23;;;;;;;2.80;0.83;;;9.70;99.90;;;;;;4937993;29;20437;-78
2023/03/25 04:52:50;;;;;;;3.13;1.73;;;9.80;99.90;;;;;;4937889;29;20480;-77
2023/03/25 04:55:18;;;;;;;1.93;1.30;;;9.80;99.90;;;;;;4937733;29;20950;-78
2023/03/25 04:57:48;;;;;;;4.20;1.43;;;9.80;99.90;;;;;;4937390;29;20482;-78
2023/03/25 05:00:16;;;;;;;4.70;1.77;;;9.80;99.90;;;;;;4937730;29;20420;-78
2023/03/25 05:02:46;;;;;;;5.30;0.77;;;9.70;99.90;;;;;;4937692;29;20509;-78
2023/03/25 05:05:20;;;;;;;4.30;0.93;;;9.70;99.90;;;;;;4937543;29;20482;-78
2023/03/25 05:07:48;;;;;;;21.63;2.00;;;9.70;99.90;;;;;;4937684;29;20406;-78
2023/03/25 05:10:14;;;;;;;2.63;0.83;;;9.80;99.90;;;;;;4952277;29;20425;-78
2023/03/25 05:12:39;;;;;;;3.30;1.23;;;9.80;99.90;;;;;;4936368;29;20469;-78
2023/03/25 05:15:06;;;;;;;2.33;0.80;;;9.80;99.90;;;;;;4937500;29;20432;-78
2023/03/25 05:17:32;;;;;;;1.70;0.50;;;9.90;99.90;;;;;;4936176;29;20190;-78
2023/03/25 05:19:57;;;;;;;2.97;0.80;;;10.00;99.90;;;;;;4937398;29;20412;-78
2023/03/25 05:22:23;;;;;;;5.47;0.87;;;10.00;99.90;;;;;;4935697;29;20177;-78
2023/03/25 05:24:52;;;;;;;1.83;0.40;;;10.10;99.90;;;;;;4935805;29;20276;-78
2023/03/25 05:27:19;;;;;;;4.27;0.60;;;10.00;99.90;;;;;;4935237;29;20285;-78
2023/03/25 05:29:47;;;;;;;3.63;0.30;;;10.10;96.40;;;;;;4937151;29;20776;-78
2023/03/25 05:32:16;;;;;;;1.93;0.50;;;10.00;99.90;;;;;;4936858;29;20474;-79
2023/03/25 05:34:47;;;;;;;1.20;0.63;;;9.90;99.90;;;;;;4936836;29;20422;-78
2023/03/25 05:37:13;;;;;;;2.57;0.73;;;10.00;99.90;;;;;;4936951;29;20436;-78
2023/03/25 05:39:39;;;;;;;1.90;0.50;;;10.00;99.90;;;;;;4936738;29;20947;-78
2023/03/25 05:42:05;;;;;;;2.80;0.90;;;10.00;99.90;;;;;;4935265;29;20184;-78
2023/03/25 05:44:33;;;;;;;5.50;0.60;;;10.00;99.90;;;;;;4936838;29;20425;-78
2023/03/25 05:47:02;;;;;;;6.00;0.70;;;10.10;93.80;;;;;;4936793;29;20181;-78
2023/03/25 05:49:28;;;;;;;3.77;0.80;;;10.10;92.10;;;;;;4936660;29;20792;-78
2023/03/25 05:51:54;;;;;;;4.60;1.43;;;10.00;99.90;;;;;;4936511;29;20840;-78
2023/03/25 05:54:23;;;;;;;7.47;1.03;;;10.00;99.90;;;;;;4936647;29;20432;-78
2023/03/25 05:56:49;;;;;;;2.50;1.63;;;10.00;99.90;;;;;;4936413;29;20427;-78
2023/03/25 05:59:15;;;;;;;3.97;0.87;;;9.90;99.90;;;;;;4936557;29;20427;-79
2023/03/25 06:01:44;;;;;;;2.10;0.83;;;10.00;99.90;;;;;;4936676;29;20440;-78
2023/03/25 06:04:11;;;;;;;1.87;0.83;;;10.00;99.90;;;;;;4935358;29;20429;-78
2023/03/25 06:06:39;;;;;;;2.30;0.57;;;9.90;99.90;;;;;;4935344;29;20430;-78
2023/03/25 06:09:05;;;;;;;3.20;1.07;;;9.90;99.90;;;;;;4936510;29;20425;-78
2023/03/25 06:11:36;;;;;;;4.63;0.97;;;9.90;99.90;;;;;;4936066;29;20410;-79
2023/03/25 06:14:03;;;;;;;6.97;1.90;;;9.80;99.90;;;;;;4936457;29;20402;-78
2023/03/25 06:16:29;;;;;;;2.27;0.40;;;9.80;99.90;;;;;;4936141;29;20440;-78
2023/03/25 06:18:58;;;;;;;3.10;0.60;;;9.80;99.90;;;;;;4935011;29;20421;-78
2023/03/25 06:21:25;;;;;;;7.37;1.17;;;9.90;99.90;;;;;;4934998;29;21131;-78
2023/03/25 06:23:52;;;;;;;2.43;0.53;;;9.80;99.90;;;;;;4936207;29;20846;-78
2023/03/25 06:26:19;;;;;;;3.47;1.03;;;9.90;99.90;;;;;;4935940;29;20414;-78
2023/03/25 06:28:45;;;;;;;8.53;1.40;;;9.90;99.90;;;;;;4935935;29;20957;-78
2023/03/25 06:31:12;;;;;;;3.87;1.33;;;9.80;99.90;;;;;;4936001;29;20424;-78
2023/03/25 06:33:38;;;;;;;6.50;1.10;;;9.90;99.90;;;;;;4936038;29;20982;-78
2023/03/25 06:36:04;;;;;;;5.00;1.47;;;9.80;99.90;;;;;;4934847;29;20465;-78
2023/03/25 06:38:32;;;;;;;2.90;0.77;;;9.90;99.90;;;;;;4935823;29;20228;-78
2023/03/25 06:40:58;;;;;;;3.10;0.87;;;9.90;99.90;;;;;;4935149;29;20435;-78
2023/03/25 06:43:26;;;;;;;5.03;1.60;;;10.00;99.90;;;;;;4934566;29;20437;-78
2023/03/25 06:45:52;;;;;;;4.10;1.13;;;10.00;99.90;;;;;;4935942;29;20204;-78
2023/03/25 06:48:20;;;;;;;4.23;1.63;;;10.00;99.90;;;;;;4935868;29;20500;-78
2023/03/25 06:50:45;;;;;;;2.00;0.80;;;10.10;99.90;;;;;;4935804;29;20257;-79
2023/03/25 06:53:11;;;;;;;3.60;1.03;;;10.20;99.90;;;;;;4935706;29;20902;-79
2023/03/25 06:55:37;;;;;;;4.50;1.20;;;10.30;99.90;;;;;;4935405;29;20187;-78
2023/03/25 06:58:06;;;;;;;2.03;0.73;;;10.60;99.90;;;;;;4935792;29;20261;-79
2023/03/25 07:00:32;;;;;;;3.07;0.93;;;10.80;99.90;;;;;;4935725;29;20527;-79
2023/03/25 07:02:57;;;;;;;3.23;0.67;;;10.70;99.90;;;;;;4934496;29;20521;-78
2023/03/25 07:05:24;;;;;;;3.43;0.63;;;10.90;99.90;;;;;;4935638;29;20178;-78
2023/03/25 07:07:49;;;;;;;2.20;0.50;;;10.90;99.90;;;;;;4934194;29;20186;-79
2023/03/25 07:10:15;;;;;;;4.60;0.60;;;11.20;99.90;;;;;;4934994;29;20797;-78
2023/03/25 07:12:40;;;;;;;9.50;2.70;;;11.50;99.90;;;;;;4934208;29;20223;-78
2023/03/25 07:15:06;;;;;;;4.30;1.40;;;11.50;9.60;;;;;;4935539;29;20184;-78
2023/03/25 07:17:32;;;;;;;8.50;1.03;;;11.40;20.00;;;;;;4934252;29;20283;-79
2023/03/25 07:19:57;;;;;;;5.37;1.37;;;11.60;32.60;;;;;;4935598;29;20424;-79
2023/03/25 07:22:23;;;;;;;5.00;0.80;;;11.80;1.00;;;;;;4935513;29;20186;-78
2023/03/25 07:24:48;;;;;;;4.13;0.50;;;11.80;1.00;;;;;;4950226;29;20179;-78
2023/03/25 07:27:14;;;;;;;4.50;0.80;;;11.80;1.00;;;;;;4934664;29;20276;-79
2023/03/25 07:29:40;;;;;;;2.97;0.50;;;12.10;1.00;;;;;;4935448;29;20210;-79
2023/03/25 07:32:06;;;;;;;3.70;0.83;;;12.60;1.00;;;;;;4934149;29;20462;-79
2023/03/25 07:34:32;;;;;;;2.43;0.60;;;12.90;1.00;;;;;;4934086;29;20194;-79
2023/03/25 07:36:57;;;;;;;3.60;0.73;;;12.90;1.00;;;;;;4938666;29;20485;-78
2023/03/25 07:39:24;;;;;;;4.77;0.60;;;12.60;1.00;;;;;;4938855;29;20244;-79
2023/03/25 07:41:50;;;;;;;4.67;0.37;;;12.60;9.10;;;;;;4938767;29;20184;-78
2023/03/25 07:44:19;;;;;;;5.30;1.03;;;12.50;1.00;;;;;;4939085;29;20441;-79
2023/03/25 07:46:45;;;;;;;4.53;0.40;;;12.60;1.00;;;;;;4937790;29;20536;-79
2023/03/25 07:49:10;;;;;;;4.57;0.70;;;12.60;99.90;;;;;;4938990;29;20512;-79
2023/03/25 07:51:36;;;;;;;4.83;1.13;;;12.70;99.90;;;;;;4937698;29;20419;-79
2023/03/25 07:54:01;;;;;;;4.33;0.57;;;12.70;99.90;;;;;;4938957;29;20182;-79
2023/03/25 07:56:26;;;;;;;6.67;0.67;;;12.70;99.90;;;;;;4953208;29;20236;-79
2023/03/25 07:58:52;;;;;;;3.90;1.10;;;12.60;99.90;;;;;;4937388;29;20185;-79
2023/03/25 08:01:17;;;;;;;2.80;1.03;;;12.70;87.50;;;;;;4937271;29;20183;-79
2023/03/25 08:03:43;;;;;;;3.00;0.80;;;13.10;99.90;;;;;;4937550;29;20174;-79
2023/03/25 08:06:09;;;;;;;2.10;0.77;;;13.10;1.00;;;;;;4937501;29;20540;-79
2023/03/25 08:08:34;;;;;;;4.73;0.53;;;13.30;1.00;;;;;;4938749;29;20222;-79
2023/03/25 08:11:01;;;;;;;3.27;0.33;;;14.10;1.00;;;;;;4936933;29;20635;-79
2023/03/25 08:13:28;;;;;;;1.70;0.60;;;14.70;99.90;;;;;;4937142;29;20985;-79
2023/03/25 08:15:53;;;;;;;2.30;0.70;;;15.10;1.00;;;;;;4937223;29;20437;-79
2023/03/25 08:18:19;;;;;;;4.77;0.33;;;15.00;1.00;;;;;;4937964;29;20784;-79
2023/03/25 08:20:44;;;;;;;3.90;0.60;;;14.90;99.90;;;;;;4938344;29;20247;-78
2023/03/25 08:23:11;;;;;;;2.00;0.53;;;14.40;1.00;;;;;;4938450;29;20187;-79
2023/03/25 08:25:38;;;;;;;2.20;0.40;;;13.90;99.90;;;;;;4938069;29;20210;-79
2023/03/25 08:28:05;;;;;;;3.77;0.30;;;13.60;1.00;;;;;;4938535;29;20429;-79
2023/03/25 08:30:36;;;;;;;1.00;0.40;;;13.70;99.90;;;;;;4938401;29;20516;-79
2023/03/25 08:33:02;;;;;;;4.43;0.57;;;13.70;1.00;;;;;;4938004;29;20481;-78
2023/03/25 08:35:27;;;;;;;1.27;0.30;;;13.60;99.90;;;;;;4938321;29;20431;-79
2023/03/25 08:37:53;;;;;;;1.87;0.70;;;13.20;1.00;;;;;;4938017;29;20664;-79
2023/03/25 08:40:18;;;;;;;3.27;0.70;;;13.20;9.30;;;;;;4937748;29;20232;-79
2023/03/25 08:42:45;;;;;;;2.10;0.60;;;13.30;1.00;;;;;;4938157;29;20233;-79
2023/03/25 08:45:11;;;;;;;1.80;0.50;;;13.60;99.90;;;;;;4938037;29;20172;-79
2023/03/25 08:47:36;;;;;;;2.07;0.60;;;13.80;1.00;;;;;;4936945;29;20419;-79
2023/03/25 08:50:02;;;;;;;2.53;0.50;;;14.10;1.00;;;;;;4938055;29;20418;-79
2023/03/25 08:52:28;;;;;;;2.30;0.40;;;14.70;99.90;;;;;;4936484;29;20685;-79
2023/03/25 08:54:53;;;;;;;3.70;0.47;;;15.30;1.00;;;;;;4937377;29;20968;-79
2023/03/25 08:57:19;;;;;;;5.60;0.47;;;15.20;99.90;;;;;;4936556;29;20178;-78
2023/03/25 08:59:45;;;;;;;1.77;0.43;;;14.80;99.90;;;;;;4936576;29;20635;-79
2023/03/25 09:02:11;;;;;;;2.93;0.43;;;14.30;1.00;;;;;;4936266;29;20511;-79
2023/03/25 09:04:37;;;;;;;2.13;0.30;;;13.70;1.00;;;;;;4936599;29;20690;-79
2023/03/25 09:07:03;;;;;;;2.90;0.57;;;13.30;99.90;;;;;;4936483;29;20465;-78
2023/03/25 09:09:29;;;;;;;5.10;0.77;;;13.10;99.90;;;;;;4937654;29;20455;-78
2023/03/25 09:11:54;;;;;;;1.57;0.30;;;12.70;99.90;;;;;;4936962;29;20301;-78
2023/03/25 09:14:20;;;;;;;3.87;0.73;;;12.40;1.00;;;;;;4952161;29;20177;-78
2023/03/25 09:16:45;;;;;;;2.83;0.47;;;12.00;1.00;;;;;;4937619;29;20174;-78
2023/03/25 09:19:11;;;;;;;3.20;0.93;;;11.90;1.00;;;;;;4937469;29;20634;-78
2023/03/25 09:21:36;;;;;;;3.00;0.50;;;11.70;54.20;;;;;;4937501;29;20178;-78
2023/03/25 09:24:02;;;;;;;3.37;1.07;;;11.60;99.90;;;;;;4936117;29;20178;-78
2023/03/25 09:26:27;;;;;;;4.03;0.50;;;11.60;99.90;;;;;;4951810;29;20176;-78
2023/03/25 09:28:55;;;;;;;2.47;0.50;;;11.50;87.20;;;;;;4937373;29;20173;-78
2023/03/25 09:31:21;;;;;;;1.43;0.30;;;11.20;58.00;;;;;;4937322;29;20167;-78
2023/03/25 09:33:50;;;;;;;0.80;0.20;;;11.10;94.50;;;;;;4937006;29;20521;-78
2023/03/25 09:36:15;;;;;;;2.10;0.30;;;10.90;99.90;;;;;;4936973;29;20449;-78
2023/03/25 09:38:41;;;;;;;0.93;0.20;;;10.80;99.90;;;;;;4936893;29;20518;-78
2023/03/25 09:41:52;;;;;;;1.80;0.20;;;10.70;99.90;;;;;;4936835;29;20639;-79
2023/03/25 09:45:11;;;;;;;2.63;0.30;;;10.60;99.90;;;;;;4909100;29;20247;-79
2023/03/25 09:47:39;;;;;;;1.67;0.20;;;10.50;99.90;;;;;;4916737;29;20862;-79
2023/03/25 09:50:11;;;;;;;2.17;0.40;;;10.40;99.90;;;;;;4935244;29;20478;-79
2023/03/25 09:53:07;;;;;;;1.37;0.30;;;10.40;99.90;;;;;;4929628;29;20569;-79
2023/03/25 09:55:39;;;;;;;2.63;0.30;;;10.20;99.90;;;;;;4917104;29;20486;-78
2023/03/25 09:58:33;;;;;;;3.20;1.00;;;10.30;99.90;;;;;;4917170;29;20430;-79
2023/03/25 10:01:22;;;;;;;1.77;0.53;;;10.20;99.90;;;;;;4917403;29;20462;-79
2023/03/25 10:04:12;;;;;;;0.70;0.20;;;10.10;99.90;;;;;;4917287;29;20956;-79
2023/03/25 10:06:57;;;;;;;0.47;0.20;;;10.10;99.90;;;;;;4923249;29;20930;-79
2023/03/25 10:09:36;;;;;;;1.57;0.30;;;10.20;99.90;;;;;;4935008;29;20995;-79
2023/03/25 10:12:40;;;;;;;1.40;0.23;;;10.20;99.90;;;;;;4933562;29;20469;-79
2023/03/25 10:15:30;;;;;;;1.83;0.33;;;10.20;99.90;;;;;;4936205;29;20425;-79
2023/03/25 10:18:31;;;;;;;2.57;0.53;;;10.40;99.90;;;;;;4950190;29;20784;-79
2023/03/25 10:21:27;;;;;;;2.40;0.30;;;10.70;99.90;;;;;;4936284;29;20435;-79
2023/03/25 10:24:23;;;;;;;2.10;0.20;;;11.30;99.90;;;;;;4935156;29;20425;-79
2023/03/25 10:26:57;;;;;;;1.63;0.23;;;12.40;99.90;;;;;;4943465;29;20428;-80
2023/03/25 10:29:38;;;;;;;2.50;0.30;;;13.40;99.90;;;;;;4936169;29;20437;-80
2023/03/25 10:32:15;;;;;;;2.67;0.67;;;13.80;99.90;;;;;;4936118;29;20554;-80
2023/03/25 10:34:49;;;;;;;3.83;0.57;;;14.50;99.90;;;;;;4935966;29;20451;-79
2023/03/25 10:37:23;;;;;;;2.93;0.50;;;15.40;1.00;;;;;;4935995;29;20764;-80
2023/03/25 10:39:50;;;;;;;4.03;0.30;;;16.70;1.00;;;;;;4935610;29;20464;-80
2023/03/25 10:42:24;;;;;;;4.70;0.73;;;17.40;99.90;;;;;;4936009;29;20417;-80
2023/03/25 10:44:51;;;;;;;4.97;0.20;;;18.00;99.90;;;;;;4950509;29;20468;-79
2023/03/25 10:47:25;;;;;;;2.57;0.37;;;17.90;99.90;;;;;;4934578;29;21000;-80
2023/03/25 10:49:52;;;;;;;2.37;0.27;;;17.70;99.90;;;;;;4934586;29;20479;-80
2023/03/25 10:52:17;;;;;;;1.37;0.20;;;16.90;99.90;;;;;;4950424;29;20561;-80
2023/03/25 10:54:49;;;;;;;1.10;0.20;;;15.80;99.90;;;;;;4950042;29;21096;-79
2023/03/25 10:57:30;;;;;;;2.10;0.70;;;15.90;99.90;;;;;;4934482;29;20186;-80
2023/03/25 10:59:58;;;;;;;4.47;0.77;;;16.10;99.90;;;;;;4934323;29;20811;-80
2023/03/25 11:02:27;;;;;;;0.70;0.20;;;16.40;99.90;;;;;;4934561;29;20460;-79
2023/03/25 11:04:57;;;;;;;2.00;0.20;;;16.20;99.90;;;;;;4934631;29;20442;-79
2023/03/25 11:07:36;;;;;;;1.73;0.20;;;15.90;99.90;;;;;;4932568;29;20427;-80
2023/03/25 11:10:16;;;;;;;2.77;0.40;;;15.50;99.90;;;;;;4946420;29;20468;-80
2023/03/25 11:12:46;;;;;;;2.80;0.30;;;15.00;99.90;;;;;;4934217;29;20484;-79
2023/03/25 11:15:15;;;;;;;2.30;0.30;;;14.80;99.90;;;;;;4935623;29;20427;-79
2023/03/25 11:17:41;;;;;;;3.67;0.57;;;14.70;99.90;;;;;;4935580;29;20439;-79
2023/03/25 11:20:17;;;;;;;1.30;0.30;;;14.20;99.90;;;;;;4935628;29;20434;-80
2023/03/25 11:22:49;;;;;;;3.93;0.70;;;13.70;1.00;;;;;;4935600;29;20472;-79
2023/03/25 11:25:24;;;;;;;3.07;0.30;;;13.40;15.40;;;;;;4949884;29;20436;-79
2023/03/25 11:27:57;;;;;;;4.20;0.40;;;13.00;1.00;;;;;;4935591;29;20918;-79
2023/03/25 11:30:25;;;;;;;3.50;0.80;;;12.50;99.90;;;;;;4935632;29;20411;-78
2023/03/25 11:33:11;;;;;;;3.83;1.03;;;12.10;99.90;;;;;;4935337;29;20483;-79
2023/03/25 11:35:46;;;;;;;5.70;0.60;;;11.80;1.00;;;;;;4935579;29;20428;-79
2023/03/25 11:38:22;;;;;;;5.70;0.90;;;11.40;41.50;;;;;;4935373;29;20495;-79
2023/03/25 11:40:58;;;;;;;2.97;0.50;;;11.00;67.40;;;;;;4934798;29;20429;-79
2023/03/25 11:43:35;;;;;;;5.27;0.83;;;10.90;99.90;;;;;;4935536;29;20424;-79
2023/03/25 11:46:15;;;;;;;1.60;0.30;;;11.00;99.90;;;;;;4934234;29;20430;-79
2023/03/25 11:48:43;;;;;;;4.37;0.37;;;11.00;99.90;;;;;;4935302;29;20429;-79
2023/03/25 11:51:14;;;;;;;1.43;0.30;;;10.90;99.90;;;;;;4935270;29;20439;-79
2023/03/25 11:53:45;;;;;;;1.63;0.53;;;10.70;95.40;;;;;;4935238;29;20826;-80
2023/03/25 11:56:19;;;;;;;0.40;0.20;;;10.40;23.60;;;;;;4933708;29;20426;-80
2023/03/25 11:58:45;;;;;;;0.30;0.20;;;10.40;90.10;;;;;;4934592;29;20433;-81
2023/03/25 12:01:28;;;;;;;0.50;0.20;;;10.40;58.80;;;;;;4935350;29;20426;-79
2023/03/25 12:04:18;;;;;;;0.70;0.20;;;10.40;99.90;;;;;;4932642;29;20949;-80
2023/03/25 12:06:53;;;;;;;1.40;0.20;;;10.80;99.90;;;;;;4934748;29;20454;-79
2023/03/25 12:09:18;;;;;;;1.77;0.20;;;11.40;99.90;;;;;;4934457;29;20574;-80
2023/03/25 12:12:21;;;;;;;0.65;0.25;;;11.70;18.50;;;;;;4934485;29;20503;-79
2023/03/25 12:15:19;;;;;;;1.23;0.40;;;11.80;1.00;;;;;;4934721;29;20185;-79
2023/03/25 12:18:15;;;;;;;0.77;0.20;;;12.10;1.00;;;;;;4934808;29;20456;-81
2023/03/25 12:21:23;;;;;;;0.43;0.20;;;12.30;1.00;;;;;;4934826;29;20834;-82
2023/03/25 12:24:13;;;;;;;1.37;0.20;;;12.50;1.00;;;;;;4938280;29;20405;-82
2023/03/25 12:26:53;;;;;;;0.60;0.20;;;12.80;99.90;;;;;;4937959;29;20445;-80
2023/03/25 12:29:43;;;;;;;1.20;0.33;;;13.20;1.00;;;;;;4937991;29;20442;-79
2023/03/25 12:32:35;;;;;;;1.70;0.20;;;13.90;99.90;;;;;;4936963;29;20481;-80
2023/03/25 12:35:19;;;;;;;1.87;0.20;;;14.90;1.00;;;;;;4952847;29;20429;-80
2023/03/25 12:38:15;;;;;;;1.50;0.30;;;15.80;1.00;;;;;;4952806;29;20433;-80
2023/03/25 12:40:59;;;;;;;0.53;0.20;;;16.50;1.00;;;;;;4936632;29;20441;-80
2023/03/25 12:43:57;;;;;;;1.17;0.27;;;16.50;99.90;;;;;;4938138;29;20527;-80
2023/03/25 12:46:57;;;;;;;2.10;0.20;;;16.40;99.90;;;;;;4938031;29;20428;-81
2023/03/25 12:49:23;;;;;;;3.37;0.20;;;16.40;99.90;;;;;;4917599;29;20431;-80
2023/03/25 12:52:07;;;;;;;1.77;0.30;;;16.20;99.90;;;;;;4937803;29;20415;-80
2023/03/25 12:55:08;;;;;;;1.00;0.20;;;16.00;99.90;;;;;;4952259;29;20184;-80
2023/03/25 12:58:08;;;;;;;2.40;0.50;;;15.10;1.00;;;;;;4952588;29;20424;-79
2023/03/25 13:00:43;;;;;;;2.00;0.40;;;14.50;1.00;;;;;;4936365;29;20525;-79
2023/03/25 13:03:29;;;;;;;3.80;0.63;;;14.00;99.90;;;;;;4936503;29;20553;-79
2023/03/25 13:06:07;;;;;;;3.20;0.70;;;13.90;91.90;;;;;;4936447;29;20430;-79
2023/03/25 13:09:08;;;;;;;3.90;0.90;;;13.60;99.90;;;;;;4937451;29;20425;-80
2023/03/25 13:11:42;;;;;;;1.93;0.33;;;13.30;1.00;;;;;;4936033;29;20433;-79
2023/03/25 13:14:38;;;;;;;1.37;0.60;;;13.10;99.90;;;;;;4937444;29;20448;-79
2023/03/25 13:17:09;;;;;;;2.00;0.67;;;13.00;99.90;;;;;;4946770;29;20478;-79
2023/03/25 13:19:40;;;;;;;3.50;0.40;;;12.80;1.00;;;;;;4937284;29;20444;-79